createdAt,value
2018-06-18T00:01:26.940Z,17.87
2018-06-18T00:03:55.437Z,17.82
2018-06-18T00:06:23.820Z,17.78
2018-06-18T00:08:52.222Z,17.73
2018-06-18T00:11:20.591Z,17.67
2018-06-18T00:13:49.005Z,17.60
2018-06-18T00:16:17.379Z,17.55
2018-06-18T00:18:45.770Z,17.48
2018-06-18T00:21:14.193Z,17.43
2018-06-18T00:23:42.603Z,17.37
2018-06-18T00:26:10.988Z,17.35
2018-06-18T00:28:39.386Z,17.32
2018-06-18T00:31:08.135Z,17.30
2018-06-18T00:33:36.554Z,17.29
2018-06-18T00:36:04.927Z,17.30
2018-06-18T00:38:33.326Z,17.31
2018-06-18T00:41:01.694Z,17.33
2018-06-18T00:43:30.103Z,17.34
2018-06-18T00:45:58.483Z,17.36
2018-06-18T00:48:26.895Z,17.39
2018-06-18T00:50:55.238Z,17.40
2018-06-18T00:53:23.652Z,17.42
2018-06-18T00:56:03.511Z,17.44
2018-06-18T00:58:31.932Z,17.44
2018-06-18T01:01:00.402Z,17.44
2018-06-18T01:03:28.835Z,17.42
2018-06-18T01:05:57.215Z,17.42
2018-06-18T01:08:25.615Z,17.38
2018-06-18T01:10:54.003Z,17.42
2018-06-18T01:13:22.441Z,17.40
2018-06-18T01:15:50.811Z,17.40
2018-06-18T01:18:19.215Z,17.38
2018-06-18T01:20:47.603Z,17.38
2018-06-18T01:23:26.681Z,17.36
2018-06-18T01:25:55.054Z,17.35
2018-06-18T01:28:23.453Z,17.34
2018-06-18T01:30:51.835Z,17.32
2018-06-18T01:33:20.244Z,17.31
2018-06-18T01:35:48.671Z,17.30
2018-06-18T01:38:17.088Z,17.29
2018-06-18T01:40:45.454Z,17.29
2018-06-18T01:43:13.820Z,17.27
2018-06-18T01:45:42.215Z,17.28
2018-06-18T01:48:10.581Z,17.27
2018-06-18T01:50:38.984Z,17.27
2018-06-18T01:53:07.391Z,17.28
2018-06-18T01:55:35.787Z,17.28
2018-06-18T01:58:04.154Z,17.28
2018-06-18T02:00:32.552Z,17.30
2018-06-18T02:03:00.921Z,17.32
2018-06-18T02:05:29.314Z,17.32
2018-06-18T02:07:57.695Z,17.34
2018-06-18T02:10:26.111Z,17.34
2018-06-18T02:12:54.615Z,17.34
2018-06-18T02:15:24.458Z,17.33
2018-06-18T02:17:53.086Z,17.33
2018-06-18T02:20:21.519Z,17.31
2018-06-18T02:22:49.900Z,17.29
2018-06-18T02:25:18.292Z,17.27
2018-06-18T02:27:51.936Z,17.25
2018-06-18T02:30:25.651Z,17.24
2018-06-18T02:32:59.316Z,17.22
2018-06-18T02:35:33.063Z,17.20
2018-06-18T02:38:06.951Z,17.19
2018-06-18T02:40:40.671Z,17.18
2018-06-18T02:43:09.044Z,17.17
2018-06-18T02:45:37.444Z,17.14
2018-06-18T02:48:05.819Z,17.12
2018-06-18T02:50:34.221Z,17.08
2018-06-18T02:53:02.586Z,17.05
2018-06-18T02:55:30.962Z,17.04
2018-06-18T02:57:59.367Z,17.02
2018-06-18T03:00:27.764Z,16.99
2018-06-18T03:02:56.171Z,16.98
2018-06-18T03:05:24.567Z,16.97
2018-06-18T03:07:53.672Z,16.96
2018-06-18T03:10:22.041Z,16.94
2018-06-18T03:12:50.449Z,16.94
2018-06-18T03:15:18.847Z,16.93
2018-06-18T03:17:47.255Z,16.91
2018-06-18T03:20:21.055Z,16.87
2018-06-18T03:23:52.851Z,16.82
2018-06-18T03:26:26.657Z,16.74
2018-06-18T03:29:00.352Z,16.69
2018-06-18T03:31:28.729Z,16.65
2018-06-18T03:33:57.124Z,16.60
2018-06-18T03:36:25.502Z,16.55
2018-06-18T03:38:53.902Z,16.52
2018-06-18T03:41:22.275Z,16.50
2018-06-18T03:43:55.831Z,16.51
2018-06-18T03:46:24.207Z,16.54
2018-06-18T03:48:52.607Z,16.59
2018-06-18T03:51:20.982Z,16.67
2018-06-18T03:53:49.377Z,16.87
2018-06-18T03:56:17.818Z,17.11
2018-06-18T03:58:46.203Z,17.40
2018-06-18T04:01:31.150Z,17.77
2018-06-18T04:04:07.443Z,18.10
2018-06-18T04:06:41.018Z,18.24
2018-06-18T04:09:14.627Z,18.37
2018-06-18T04:11:48.394Z,18.46
2018-06-18T04:14:17.007Z,18.53
2018-06-18T04:16:45.567Z,18.56
2018-06-18T04:19:13.978Z,18.57
2018-06-18T04:21:42.350Z,18.60
2018-06-18T04:24:10.931Z,18.62
2018-06-18T04:26:39.335Z,18.64
2018-06-18T04:29:07.790Z,18.66
2018-06-18T04:31:36.251Z,18.65
2018-06-18T04:34:16.691Z,18.65
2018-06-18T04:36:45.063Z,18.65
2018-06-18T04:39:13.462Z,18.67
2018-06-18T04:41:47.349Z,18.67
2018-06-18T04:44:21.118Z,18.68
2018-06-18T04:46:54.848Z,18.71
2018-06-18T04:49:28.676Z,18.78
2018-06-18T04:51:57.043Z,18.87
2018-06-18T04:54:25.430Z,18.99
2018-06-18T04:56:53.831Z,19.17
2018-06-18T04:59:22.200Z,19.28
2018-06-18T05:01:50.596Z,19.39
2018-06-18T05:04:18.980Z,19.46
2018-06-18T05:06:47.389Z,19.51
2018-06-18T05:10:28.595Z,19.56
2018-06-18T05:12:56.974Z,19.60
2018-06-18T05:15:28.532Z,19.63
2018-06-18T05:17:56.902Z,19.67
2018-06-18T05:20:25.358Z,19.70
2018-06-18T05:22:53.710Z,19.71
2018-06-18T05:25:22.097Z,19.72
2018-06-18T05:27:50.553Z,19.74
2018-06-18T05:30:22.707Z,19.78
2018-06-18T05:32:51.091Z,19.83
2018-06-18T05:35:19.478Z,19.88
2018-06-18T05:37:58.796Z,19.95
2018-06-18T05:40:27.207Z,20.07
2018-06-18T05:42:55.611Z,20.23
2018-06-18T05:45:23.986Z,20.40
2018-06-18T05:47:52.395Z,20.59
2018-06-18T05:50:20.811Z,20.83
2018-06-18T05:52:49.179Z,21.01
2018-06-18T05:55:17.550Z,21.13
2018-06-18T05:57:45.959Z,21.23
2018-06-18T06:00:14.381Z,21.27
2018-06-18T06:02:42.812Z,21.31
2018-06-18T06:05:11.204Z,21.31
2018-06-18T06:07:39.603Z,21.35
2018-06-18T06:10:07.966Z,21.41
2018-06-18T06:12:36.367Z,21.44
2018-06-18T06:15:04.773Z,21.50
2018-06-18T06:17:33.165Z,21.49
2018-06-18T06:20:01.546Z,21.47
2018-06-18T06:22:30.005Z,21.41
2018-06-18T06:24:58.363Z,21.32
2018-06-18T06:27:26.736Z,21.24
2018-06-18T06:29:55.137Z,21.22
2018-06-18T06:32:23.515Z,21.24
2018-06-18T06:34:56.526Z,21.31
2018-06-18T06:37:25.067Z,21.41
2018-06-18T06:39:53.667Z,21.52
2018-06-18T06:42:22.030Z,21.61
2018-06-18T06:44:50.422Z,21.73
2018-06-18T06:47:18.793Z,21.83
2018-06-18T06:49:47.190Z,21.92
2018-06-18T06:52:15.558Z,21.98
2018-06-18T06:54:43.946Z,22.05
2018-06-18T06:57:12.319Z,22.11
2018-06-18T06:59:40.714Z,22.20
2018-06-18T07:02:09.078Z,22.26
2018-06-18T07:04:37.479Z,22.28
2018-06-18T07:07:05.855Z,22.31
2018-06-18T07:09:34.263Z,22.37
2018-06-18T07:12:02.630Z,22.46
2018-06-18T07:14:31.046Z,22.57
2018-06-18T07:16:59.431Z,22.63
2018-06-18T07:19:27.834Z,22.64
2018-06-18T07:21:56.211Z,22.66
2018-06-18T07:24:24.634Z,22.67
2018-06-18T07:26:53.018Z,22.73
2018-06-18T07:29:21.413Z,22.82
2018-06-18T07:31:49.788Z,22.93
2018-06-18T07:34:18.211Z,23.06
2018-06-18T07:36:46.579Z,23.21
2018-06-18T07:39:14.999Z,23.35
2018-06-18T07:41:43.398Z,23.45
2018-06-18T07:44:11.766Z,23.60
2018-06-18T07:46:40.157Z,23.77
2018-06-18T07:49:08.540Z,23.88
2018-06-18T07:51:37.010Z,24.06
2018-06-18T07:54:05.351Z,24.22
2018-06-18T07:56:33.747Z,24.36
2018-06-18T07:59:02.127Z,24.39
2018-06-18T08:01:30.541Z,24.47
2018-06-18T08:03:58.915Z,24.46
2018-06-18T08:06:27.314Z,24.37
2018-06-18T08:08:55.714Z,24.29
2018-06-18T08:11:24.119Z,24.18
2018-06-18T08:13:52.514Z,24.04
2018-06-18T08:16:20.933Z,23.88
2018-06-18T08:18:49.405Z,23.71
2018-06-18T08:21:17.794Z,23.55
2018-06-18T08:23:46.260Z,23.42
2018-06-18T08:26:14.635Z,23.29
2018-06-18T08:28:42.998Z,23.15
2018-06-18T08:31:11.381Z,23.01
2018-06-18T08:33:39.759Z,22.88
2018-06-18T08:36:08.166Z,22.76
2018-06-18T08:38:36.539Z,22.65
2018-06-18T08:41:04.939Z,22.53
2018-06-18T08:43:33.310Z,22.41
2018-06-18T08:46:01.706Z,22.31
2018-06-18T08:48:35.453Z,22.25
2018-06-18T08:51:09.146Z,22.19
2018-06-18T08:53:42.994Z,22.14
2018-06-18T08:56:16.844Z,22.09
2018-06-18T08:58:50.678Z,22.07
2018-06-18T09:01:54.568Z,22.06
2018-06-18T09:04:28.418Z,22.04
2018-06-18T09:07:03.719Z,22.01
2018-06-18T09:09:32.103Z,22.00
2018-06-18T09:12:00.517Z,22.00
2018-06-18T09:14:28.982Z,22.00
2018-06-18T09:16:57.399Z,22.01
2018-06-18T09:19:25.777Z,22.03
2018-06-18T09:21:54.179Z,22.06
2018-06-18T09:24:26.706Z,22.15
2018-06-18T09:27:00.546Z,22.26
2018-06-18T09:29:28.922Z,22.35
2018-06-18T09:31:57.378Z,22.40
2018-06-18T09:34:25.747Z,22.43
2018-06-18T09:36:54.127Z,22.45
2018-06-18T09:39:22.530Z,22.45
2018-06-18T09:41:50.915Z,22.45
2018-06-18T09:44:19.453Z,22.44
2018-06-18T09:46:47.977Z,22.41
2018-06-18T09:49:21.811Z,22.38
2018-06-18T09:51:55.579Z,22.36
2018-06-18T09:54:29.323Z,22.35
2018-06-18T09:57:03.120Z,22.41
2018-06-18T09:59:41.114Z,22.55
2018-06-18T10:02:10.626Z,22.72
2018-06-18T10:04:39.051Z,22.95
2018-06-18T10:07:07.427Z,23.20
2018-06-18T10:09:36.086Z,23.48
2018-06-18T10:12:04.475Z,23.67
2018-06-18T10:14:32.907Z,23.87
2018-06-18T10:17:01.306Z,24.00
2018-06-18T10:19:29.699Z,24.10
2018-06-18T10:21:58.076Z,24.10
2018-06-18T10:24:26.504Z,24.12
2018-06-18T10:26:54.941Z,24.16
2018-06-18T10:29:23.339Z,24.21
2018-06-18T10:31:51.702Z,24.24
2018-06-18T10:34:25.376Z,24.31
2018-06-18T10:36:59.170Z,24.41
2018-06-18T10:39:32.989Z,24.51
2018-06-18T10:42:06.802Z,24.65
2018-06-18T10:44:35.203Z,24.75
2018-06-18T10:47:03.600Z,24.85
2018-06-18T10:49:32.000Z,24.90
2018-06-18T10:52:00.380Z,24.95
2018-06-18T10:54:28.773Z,24.94
2018-06-18T10:56:57.185Z,24.95
2018-06-18T10:59:25.595Z,24.98
2018-06-18T11:01:53.964Z,25.00
2018-06-18T11:04:27.738Z,25.03
2018-06-18T11:06:56.132Z,25.00
2018-06-18T11:09:24.498Z,25.04
2018-06-18T11:11:53.221Z,25.17
2018-06-18T11:14:21.595Z,25.23
2018-06-18T11:16:55.760Z,25.35
2018-06-18T11:19:29.509Z,25.55
2018-06-18T11:22:05.263Z,25.64
2018-06-18T11:24:39.047Z,25.64
2018-06-18T11:27:07.525Z,25.63
2018-06-18T11:29:36.152Z,25.67
2018-06-18T11:32:04.513Z,25.69
2018-06-18T11:34:32.972Z,25.75
2018-06-18T11:37:01.334Z,25.71
2018-06-18T11:39:29.794Z,25.67
2018-06-18T11:41:58.245Z,25.70
2018-06-18T11:44:26.565Z,25.70
2018-06-18T11:46:54.960Z,25.71
2018-06-18T11:49:23.331Z,25.70
2018-06-18T11:51:51.731Z,25.68
2018-06-18T11:54:20.118Z,25.78
2018-06-18T11:56:48.524Z,25.97
2018-06-18T11:59:22.130Z,26.14
2018-06-18T12:01:56.047Z,26.26
2018-06-18T12:04:29.615Z,26.34
2018-06-18T12:07:03.321Z,26.48
2018-06-18T12:09:33.247Z,26.55
2018-06-18T12:12:01.659Z,26.57
2018-06-18T12:14:30.046Z,26.67
2018-06-18T12:16:58.443Z,26.81
2018-06-18T12:19:26.846Z,26.93
2018-06-18T12:21:55.417Z,27.03
2018-06-18T12:24:23.898Z,26.98
2018-06-18T12:26:52.549Z,26.95
2018-06-18T12:29:21.896Z,27.00
2018-06-18T12:31:50.326Z,26.98
2018-06-18T12:34:18.859Z,27.02
2018-06-18T12:36:47.222Z,27.13
2018-06-18T12:39:15.620Z,27.22
2018-06-18T12:41:51.191Z,27.27
2018-06-18T12:44:19.611Z,27.30
2018-06-18T12:46:53.459Z,27.28
2018-06-18T12:49:28.007Z,27.21
2018-06-18T12:52:01.783Z,27.18
2018-06-18T12:54:35.542Z,27.15
2018-06-18T12:57:05.935Z,27.14
2018-06-18T12:59:34.374Z,27.18
2018-06-18T13:02:08.650Z,27.20
2018-06-18T13:04:41.466Z,27.21
2018-06-18T13:07:09.833Z,27.19
2018-06-18T13:09:38.245Z,27.15
2018-06-18T13:12:06.727Z,27.13
2018-06-18T13:14:35.125Z,27.14
2018-06-18T13:17:03.588Z,27.15
2018-06-18T13:19:31.966Z,27.18
2018-06-18T13:22:00.341Z,27.16
2018-06-18T13:24:28.827Z,27.22
2018-06-18T13:26:57.187Z,27.36
2018-06-18T13:29:25.579Z,27.55
2018-06-18T13:31:53.968Z,27.74
2018-06-18T13:34:22.353Z,27.90
2018-06-18T13:36:54.844Z,27.99
2018-06-18T13:39:28.582Z,28.06
2018-06-18T13:42:02.410Z,28.07
2018-06-18T13:45:36.213Z,27.96
2018-06-18T13:48:10.047Z,27.81
2018-06-18T13:50:38.443Z,27.72
2018-06-18T13:53:06.815Z,27.68
2018-06-18T13:55:35.227Z,27.75
2018-06-18T13:58:03.624Z,27.72
2018-06-18T14:00:31.999Z,27.70
2018-06-18T14:03:00.390Z,27.63
2018-06-18T14:05:28.754Z,27.56
2018-06-18T14:07:57.158Z,27.52
2018-06-18T14:10:25.519Z,27.50
2018-06-18T14:12:53.915Z,27.49
2018-06-18T14:15:22.278Z,27.43
2018-06-18T14:17:50.676Z,27.34
2018-06-18T14:20:22.175Z,27.24
2018-06-18T14:22:50.779Z,27.11
2018-06-18T14:25:19.314Z,27.00
2018-06-18T14:27:47.886Z,26.93
2018-06-18T14:30:21.581Z,26.86
2018-06-18T14:32:55.419Z,26.80
2018-06-18T14:35:29.333Z,26.75
2018-06-18T14:38:03.229Z,26.67
2018-06-18T14:40:31.636Z,26.60
2018-06-18T14:43:00.039Z,26.53
2018-06-18T14:45:28.418Z,26.48
2018-06-18T14:47:56.845Z,26.46
2018-06-18T14:50:25.210Z,26.53
2018-06-18T14:52:53.623Z,26.65
2018-06-18T14:55:22.018Z,26.77
2018-06-18T14:57:50.391Z,26.85
2018-06-18T15:00:25.879Z,26.85
2018-06-18T15:02:54.569Z,26.82
2018-06-18T15:05:23.970Z,26.77
2018-06-18T15:07:52.454Z,26.71
2018-06-18T15:10:20.920Z,26.64
2018-06-18T15:12:52.254Z,26.55
2018-06-18T15:15:25.854Z,26.43
2018-06-18T15:17:54.243Z,26.29
2018-06-18T15:20:22.729Z,26.15
2018-06-18T15:23:08.724Z,26.04
2018-06-18T15:25:40.159Z,25.88
2018-06-18T15:28:08.531Z,25.75
2018-06-18T15:30:36.917Z,25.66
2018-06-18T15:33:05.278Z,25.58
2018-06-18T15:35:33.887Z,25.53
2018-06-18T15:38:02.324Z,25.51
2018-06-18T15:40:30.682Z,25.48
2018-06-18T15:42:59.090Z,25.48
2018-06-18T15:45:27.514Z,25.52
2018-06-18T15:47:55.915Z,25.57
2018-06-18T15:50:24.301Z,25.62
2018-06-18T15:52:52.789Z,25.71
2018-06-18T15:55:21.184Z,25.80
2018-06-18T15:57:49.575Z,25.89
2018-06-18T16:00:17.946Z,25.96
2018-06-18T16:02:46.333Z,26.05
2018-06-18T16:05:14.715Z,26.12
2018-06-18T16:07:43.184Z,26.11
2018-06-18T16:10:11.561Z,26.05
2018-06-18T16:12:39.972Z,26.00
2018-06-18T16:15:08.352Z,25.94
2018-06-18T16:17:36.756Z,25.89
2018-06-18T16:20:05.339Z,25.82
2018-06-18T16:22:33.728Z,25.76
2018-06-18T16:25:02.101Z,25.72
2018-06-18T16:27:30.494Z,25.68
2018-06-18T16:29:58.862Z,25.63
2018-06-18T16:32:27.246Z,25.59
2018-06-18T16:34:55.624Z,25.54
2018-06-18T16:37:24.019Z,25.52
2018-06-18T16:39:52.395Z,25.51
2018-06-18T16:42:20.781Z,25.50
2018-06-18T16:44:49.159Z,25.49
2018-06-18T16:47:17.649Z,25.50
2018-06-18T16:49:46.034Z,25.48
2018-06-18T16:52:14.428Z,25.47
2018-06-18T16:54:42.822Z,25.46
2018-06-18T16:57:11.223Z,25.47
2018-06-18T16:59:39.604Z,25.46
2018-06-18T17:02:08.036Z,25.47
2018-06-18T17:04:36.409Z,25.48
2018-06-18T17:07:04.986Z,25.48
2018-06-18T17:09:33.363Z,25.51
2018-06-18T17:12:01.758Z,25.53
2018-06-18T17:14:30.155Z,25.57
2018-06-18T17:16:58.537Z,25.57
2018-06-18T17:19:26.940Z,25.56
2018-06-18T17:21:55.324Z,25.52
2018-06-18T17:24:23.724Z,25.48
2018-06-18T17:26:52.255Z,25.44
2018-06-18T17:29:20.650Z,25.39
2018-06-18T17:31:49.041Z,25.36
2018-06-18T17:34:17.472Z,25.33
2018-06-18T17:36:45.841Z,25.30
2018-06-18T17:39:14.484Z,25.26
2018-06-18T17:41:42.863Z,25.22
2018-06-18T17:44:11.245Z,25.17
2018-06-18T17:46:39.620Z,25.11
2018-06-18T17:49:08.107Z,25.07
2018-06-18T17:51:36.485Z,25.07
2018-06-18T17:54:04.884Z,25.17
2018-06-18T17:56:33.426Z,25.36
2018-06-18T17:59:01.823Z,25.42
2018-06-18T18:01:30.195Z,25.46
2018-06-18T18:03:58.595Z,25.47
2018-06-18T18:06:26.962Z,25.40
2018-06-18T18:08:55.378Z,25.31
2018-06-18T18:11:23.849Z,25.21
2018-06-18T18:13:52.180Z,25.12
2018-06-18T18:16:20.571Z,25.04
2018-06-18T18:18:48.971Z,24.93
2018-06-18T18:21:17.343Z,24.81
2018-06-18T18:23:45.759Z,24.68
2018-06-18T18:26:14.143Z,24.54
2018-06-18T18:28:42.566Z,24.44
2018-06-18T18:31:10.943Z,24.33
2018-06-18T18:33:39.311Z,24.24
2018-06-18T18:36:07.689Z,24.17
2018-06-18T18:38:36.178Z,24.07
2018-06-18T18:41:04.576Z,23.99
2018-06-18T18:43:32.937Z,23.90
2018-06-18T18:46:01.393Z,23.82
2018-06-18T18:48:29.759Z,23.77
2018-06-18T18:50:58.174Z,23.71
2018-06-18T18:53:26.627Z,23.65
2018-06-18T18:57:05.490Z,23.62
2018-06-18T18:59:36.309Z,23.53
2018-06-18T19:02:04.723Z,23.49
2018-06-18T19:04:36.386Z,23.46
2018-06-18T19:07:05.087Z,23.43
2018-06-18T19:09:43.679Z,23.40
2018-06-18T19:12:12.083Z,23.37
2018-06-18T19:14:40.454Z,23.32
2018-06-18T19:17:08.856Z,23.27
2018-06-18T19:19:44.991Z,23.22
2018-06-18T19:22:13.581Z,23.17
2018-06-18T19:24:42.435Z,23.12
2018-06-18T19:27:11.055Z,23.08
2018-06-18T19:29:39.749Z,23.04
2018-06-18T19:32:08.147Z,23.02
2018-06-18T19:34:36.523Z,22.98
2018-06-18T19:37:05.227Z,22.95
2018-06-18T19:39:38.479Z,22.92
2018-06-18T19:42:07.485Z,22.92
2018-06-18T19:44:35.855Z,22.92
2018-06-18T19:48:14.218Z,22.90
2018-06-18T19:50:42.619Z,22.88
2018-06-18T19:53:11.016Z,22.85
2018-06-18T19:55:39.373Z,22.81
2018-06-18T19:58:07.761Z,22.81
2018-06-18T20:00:43.035Z,22.78
2018-06-18T20:03:11.591Z,22.75
2018-06-18T20:05:39.954Z,22.72
2018-06-18T20:08:12.285Z,22.69
2018-06-18T20:10:40.658Z,22.64
2018-06-18T20:13:09.056Z,22.59
2018-06-18T20:15:37.427Z,22.57
2018-06-18T20:18:05.842Z,22.54
2018-06-18T20:20:34.339Z,22.52
2018-06-18T20:23:03.782Z,22.52
2018-06-18T20:25:39.954Z,22.52
2018-06-18T20:28:08.363Z,22.50
2018-06-18T20:30:36.740Z,22.49
2018-06-18T20:33:05.807Z,22.47
2018-06-18T20:35:36.820Z,22.46
2018-06-18T20:38:05.220Z,22.44
2018-06-18T20:40:33.594Z,22.42
2018-06-18T20:43:02.003Z,22.40
2018-06-18T20:45:30.638Z,22.37
2018-06-18T20:47:59.007Z,22.37
2018-06-18T20:50:27.431Z,22.35
2018-06-18T20:52:55.800Z,22.35
2018-06-18T20:55:24.229Z,22.33
2018-06-18T20:57:52.594Z,22.30
2018-06-18T21:00:20.979Z,22.28
2018-06-18T21:02:49.343Z,22.25
2018-06-18T21:05:17.730Z,22.21
2018-06-18T21:07:46.135Z,22.17
2018-06-18T21:10:14.522Z,22.13
2018-06-18T21:12:43.607Z,22.08
2018-06-18T21:15:12.003Z,22.06
2018-06-18T21:17:40.391Z,22.03
2018-06-18T21:20:08.787Z,21.99
2018-06-18T21:22:37.154Z,21.95
2018-06-18T21:25:05.581Z,21.92
2018-06-18T21:27:33.975Z,21.88
2018-06-18T21:30:02.375Z,21.83
2018-06-18T21:32:30.751Z,21.76
2018-06-18T21:34:59.143Z,21.72
2018-06-18T21:37:27.515Z,21.67
2018-06-18T21:39:55.911Z,21.65
2018-06-18T21:42:24.284Z,21.61
2018-06-18T21:44:59.338Z,21.58
2018-06-18T21:47:27.709Z,21.56
2018-06-18T21:49:56.103Z,21.54
2018-06-18T21:52:24.466Z,21.52
2018-06-18T21:54:54.486Z,21.52
2018-06-18T21:57:22.867Z,21.49
2018-06-18T21:59:51.235Z,21.45
2018-06-18T22:02:19.637Z,21.39
2018-06-18T22:04:48.007Z,21.34
2018-06-18T22:07:16.502Z,21.30
2018-06-18T22:09:44.875Z,21.26
2018-06-18T22:12:13.267Z,21.22
2018-06-18T22:14:41.639Z,21.17
2018-06-18T22:17:10.030Z,21.11
2018-06-18T22:19:38.409Z,21.07
2018-06-18T22:22:06.819Z,21.04
2018-06-18T22:24:35.188Z,21.01
2018-06-18T22:27:03.598Z,20.98
2018-06-18T22:29:31.971Z,20.95
2018-06-18T22:32:00.362Z,20.91
2018-06-18T22:34:28.735Z,20.90
2018-06-18T22:36:57.121Z,20.88
2018-06-18T22:39:25.481Z,20.88
2018-06-18T22:41:53.876Z,20.86
2018-06-18T22:44:22.237Z,20.85
2018-06-18T22:46:50.634Z,20.85
2018-06-18T22:49:19.010Z,20.86
2018-06-18T22:51:47.408Z,20.87
2018-06-18T22:54:15.779Z,20.88
2018-06-18T22:56:44.184Z,20.89
2018-06-18T22:59:12.547Z,20.91
2018-06-18T23:01:40.939Z,20.92
2018-06-18T23:04:09.311Z,20.93
2018-06-18T23:06:37.707Z,20.93
2018-06-18T23:09:09.190Z,20.93
2018-06-18T23:11:37.694Z,20.93
2018-06-18T23:14:08.751Z,20.93
2018-06-18T23:16:37.251Z,20.91
2018-06-18T23:19:05.812Z,20.91
2018-06-18T23:21:34.181Z,20.90
2018-06-18T23:24:02.572Z,20.89
2018-06-18T23:26:31.131Z,20.87
2018-06-18T23:29:02.826Z,20.87
2018-06-18T23:31:31.194Z,20.85
2018-06-18T23:33:59.603Z,20.83
2018-06-18T23:36:27.967Z,20.80
2018-06-18T23:38:56.358Z,20.78
2018-06-18T23:41:26.348Z,20.77
2018-06-18T23:43:54.734Z,20.75
2018-06-18T23:46:23.107Z,20.74
2018-06-18T23:48:51.502Z,20.71
2018-06-18T23:51:19.866Z,20.69
2018-06-18T23:53:48.275Z,20.67
2018-06-18T23:56:16.663Z,20.64
2018-06-18T23:58:45.064Z,20.62
